Time;durP1;ratioP1;P1;durP2;ratioP2;P2;SDS_P1;SDS_P2;PMS_P1;PMS_P2;Temp;Humidity;BMP_temperature;BMP_pressure;BME280_temperature;BME280_humidity;BME280_pressure;Samples;Min_cycle;Max_cycle;Signal;HPM_P1;HPM_P2
2023/05/15 00:02:14;;;;;;;4.20;3.80;;;;;;;16.60;44.72;99355.53;10267885;28;20259;-67
2023/05/15 00:07:16;;;;;;;4.17;3.77;;;;;;;16.57;44.96;99374.06;10262819;28;20265;-68
2023/05/15 00:12:17;;;;;;;4.93;4.43;;;;;;;16.93;43.81;99378.41;10269539;28;20245;-67
2023/05/15 00:17:19;;;;;;;4.03;3.63;;;;;;;15.77;45.67;99405.75;10271504;28;20247;-68
2023/05/15 00:22:21;;;;;;;4.90;4.40;;;;;;;15.67;46.30;99417.13;10273602;28;20230;-70
2023/05/15 00:27:22;;;;;;;3.97;3.57;;;;;;;16.16;45.36;99387.38;10271486;28;20242;-67
2023/05/15 00:32:24;;;;;;;3.97;3.57;;;;;;;16.25;45.04;99364.38;10273430;28;20237;-68
2023/05/15 00:37:26;;;;;;;5.10;4.07;;;;;;;15.69;46.33;99403.41;10271124;28;20244;-69
2023/05/15 00:42:28;;;;;;;4.13;3.80;;;;;;;16.20;45.67;99398.53;10272649;28;20231;-69
2023/05/15 00:47:31;;;;;;;4.53;4.13;;;;;;;16.09;45.93;99394.72;10271922;28;20230;-70
2023/05/15 00:52:34;;;;;;;4.70;4.30;;;;;;;16.12;45.79;99386.19;10269408;28;20332;-69
2023/05/15 00:57:37;;;;;;;4.27;3.70;;;;;;;16.51;45.47;99404.72;10269618;28;20230;-67
2023/05/15 01:02:38;;;;;;;4.80;3.70;;;;;;;15.10;47.29;99398.47;10269393;28;20251;-68
2023/05/15 01:07:55;;;;;;;5.10;4.60;;;;;;;15.32;46.50;99398.03;10269716;28;20231;-69
2023/05/15 01:12:57;;;;;;;4.93;4.10;;;;;;;16.02;45.53;99394.81;10270383;28;20910;-67
2023/05/15 01:17:59;;;;;;;6.10;4.90;;;;;;;15.93;45.73;99398.09;10269942;28;20256;-67
2023/05/15 01:23:16;;;;;;;5.80;4.70;;;;;;;16.52;45.19;99415.28;10270395;28;20244;-69
2023/05/15 01:28:22;;;;;;;5.00;4.50;;;;;;;15.86;46.02;99407.09;10269073;28;20249;-67
2023/05/15 01:33:28;;;;;;;5.00;4.60;;;;;;;16.47;45.06;99398.16;10273688;28;20238;-70
2023/05/15 01:38:45;;;;;;;6.30;4.87;;;;;;;16.71;44.79;99421.41;10271501;28;20238;-69
2023/05/15 01:43:51;;;;;;;5.40;4.70;;;;;;;15.99;45.48;99387.22;10275705;28;20246;-69
2023/05/15 01:48:53;;;;;;;4.93;4.43;;;;;;;16.35;45.44;99420.53;10271275;28;20246;-70
2023/05/15 01:53:58;;;;;;;6.67;4.37;;;;;;;16.16;45.49;99400.03;10272044;28;20250;-69
2023/05/15 01:59:00;;;;;;;4.90;4.40;;;;;;;14.37;48.40;99369.50;10267780;28;20316;-68
2023/05/15 02:04:02;;;;;;;6.07;4.20;;;;;;;15.02;48.01;99433.78;10271571;28;20247;-67
2023/05/15 02:09:04;;;;;;;5.20;4.30;;;;;;;16.24;45.81;99414.00;10272048;28;20236;-67
2023/05/15 02:14:08;;;;;;;5.20;4.70;;;;;;;15.80;46.36;99399.09;10272378;28;20237;-68
2023/05/15 02:19:09;;;;;;;6.40;5.20;;;;;;;15.84;46.75;99413.75;10273643;28;20265;-67
2023/05/15 02:24:11;;;;;;;6.07;5.40;;;;;;;15.15;48.03;99413.97;10269926;28;20226;-70
2023/05/15 02:29:20;;;;;;;5.47;4.97;;;;;;;14.83;48.92;99437.47;10269637;28;20260;-67
2023/05/15 02:35:01;;;;;;;6.60;5.40;;;;;;;15.03;48.76;99421.13;10264945;28;20701;-67
2023/05/15 02:40:05;;;;;;;7.20;4.90;;;;;;;14.12;49.83;99404.44;10277620;28;20296;-67
2023/05/15 02:45:09;;;;;;;6.63;6.03;;;;;;;14.68;49.40;99424.34;10272241;28;20266;-68
2023/05/15 02:50:11;;;;;;;7.87;6.00;;;;;;;14.98;48.62;99411.00;10269616;28;20238;-67
2023/05/15 02:55:12;;;;;;;6.70;6.00;;;;;;;15.24;48.83;99423.38;10272903;28;20234;-70
2023/05/15 03:00:14;;;;;;;7.60;6.13;;;;;;;15.54;48.48;99405.63;10267672;28;20241;-67
2023/05/15 03:05:16;;;;;;;6.83;6.13;;;;;;;14.44;50.11;99399.03;10268174;28;20247;-66
2023/05/15 03:10:20;;;;;;;6.67;5.87;;;;;;;14.18;51.59;99417.03;10268404;28;20241;-67
2023/05/15 03:15:21;;;;;;;6.80;6.10;;;;;;;13.99;51.08;99391.88;10266903;28;20222;-67
2023/05/15 03:20:23;;;;;;;7.80;6.50;;;;;;;13.51;53.06;99389.66;10265783;28;20277;-68
2023/05/15 03:25:25;;;;;;;7.97;6.47;;;;;;;14.81;50.32;99418.00;10268151;28;20227;-69
2023/05/15 03:30:27;;;;;;;7.27;6.57;;;;;;;13.86;51.21;99414.28;10260381;28;20317;-66
2023/05/15 03:35:31;;;;;;;6.83;5.67;;;;;;;12.93;53.14;99394.75;10263001;28;20226;-66
2023/05/15 03:40:32;;;;;;;6.13;5.53;;;;;;;13.79;51.17;99446.59;10267191;28;20325;-66
2023/05/15 03:45:35;;;;;;;6.60;5.87;;;;;;;13.08;52.28;99415.19;10271557;28;20238;-66
2023/05/15 03:50:38;;;;;;;5.97;5.17;;;;;;;14.26;50.04;99448.25;10271711;28;20235;-65
2023/05/15 03:55:40;;;;;;;7.03;5.83;;;;;;;13.54;51.13;99467.19;10271924;28;20235;-67
2023/05/15 04:00:41;;;;;;;7.73;5.97;;;;;;;13.51;51.24;99465.72;10270240;28;20773;-66
2023/05/15 04:05:43;;;;;;;6.53;5.53;;;;;;;12.87;51.90;99438.56;10272206;28;20749;-66
2023/05/15 04:10:45;;;;;;;6.30;5.70;;;;;;;13.75;50.84;99480.34;10269376;28;20234;-66
2023/05/15 04:15:47;;;;;;;5.63;5.03;;;;;;;13.48;51.02;99483.13;10271558;28;20244;-66
2023/05/15 04:20:49;;;;;;;5.57;4.87;;;;;;;13.72;50.25;99474.56;10270341;28;20285;-66
2023/05/15 04:25:52;;;;;;;5.77;5.10;;;;;;;14.17;50.47;99502.34;10272316;28;20228;-66
2023/05/15 04:30:54;;;;;;;7.57;5.00;;;;;;;13.22;51.50;99480.47;10272565;28;20620;-67
2023/05/15 04:35:55;;;;;;;6.77;6.07;;;;;;;13.02;52.62;99491.22;10271937;28;20238;-66
2023/05/15 04:40:57;;;;;;;6.20;5.60;;;;;;;13.06;52.53;99481.72;10269047;28;20242;-67
2023/05/15 04:45:58;;;;;;;7.17;6.07;;;;;;;13.86;50.31;99497.66;10271670;28;20244;-67
2023/05/15 04:51:00;;;;;;;6.80;5.43;;;;;;;13.49;51.03;99502.75;10269615;28;20238;-67
2023/05/15 04:56:02;;;;;;;6.03;5.10;;;;;;;12.28;54.22;99448.22;10271394;28;20618;-67
2023/05/15 05:01:03;;;;;;;6.90;6.00;;;;;;;12.39;55.00;99487.03;10275520;28;20234;-67
2023/05/15 05:06:05;;;;;;;9.87;6.47;;;;;;;13.08;53.83;99514.56;10273027;28;20658;-66
2023/05/15 05:11:07;;;;;;;6.37;5.77;;;;;;;12.95;53.76;99504.66;10269457;28;20242;-66
2023/05/15 05:16:08;;;;;;;7.50;5.73;;;;;;;13.09;53.79;99487.50;10273941;28;20638;-66
2023/05/15 05:21:10;;;;;;;6.53;5.20;;;;;;;13.92;51.79;99517.50;10271713;28;20296;-67
2023/05/15 05:26:12;;;;;;;7.43;5.90;;;;;;;14.49;51.53;99544.59;10328540;28;20756;-67
2023/05/15 05:31:14;;;;;;;7.20;5.87;;;;;;;13.34;53.49;99531.72;10289104;28;20231;-66
2023/05/15 05:36:15;;;;;;;7.33;6.40;;;;;;;13.86;53.13;99532.63;10284444;28;20628;-67
2023/05/15 05:41:17;;;;;;;6.40;5.80;;;;;;;13.46;53.39;99527.34;10332069;28;20634;-65
2023/05/15 05:46:19;;;;;;;8.67;5.93;;;;;;;13.17;53.65;99534.81;10327708;28;20242;-67
2023/05/15 05:51:21;;;;;;;9.50;6.43;;;;;;;13.10;53.96;99548.25;10320565;28;20238;-67
2023/05/15 05:56:23;;;;;;;7.10;6.00;;;;;;;13.41;53.56;99543.28;10327981;28;20209;-67
2023/05/15 06:01:25;;;;;;;8.00;6.33;;;;;;;13.54;53.96;99556.72;10320540;28;20226;-67
2023/05/15 06:06:27;;;;;;;7.40;6.40;;;;;;;14.02;52.84;99583.28;10319820;28;20236;-67
2023/05/15 06:11:29;;;;;;;8.67;6.37;;;;;;;12.88;54.39;99531.50;10320212;28;20226;-67
2023/05/15 06:16:31;;;;;;;6.70;6.00;;;;;;;14.01;52.90;99584.31;10325327;28;20206;-67
2023/05/15 06:21:32;;;;;;;7.93;5.07;;;;;;;14.45;51.84;99594.53;10319866;28;20324;-67
2023/05/15 06:26:35;;;;;;;7.03;5.90;;;;;;;13.69;53.77;99575.28;10323201;28;20245;-67
2023/05/15 06:31:36;;;;;;;7.47;6.10;;;;;;;13.71;54.17;99559.78;10323434;28;20230;-66
2023/05/15 06:36:38;;;;;;;6.10;5.50;;;;;;;13.67;53.90;99559.38;10322378;28;21976;-66
2023/05/15 06:41:40;;;;;;;5.30;4.80;;;;;;;14.30;52.95;99582.16;10320827;28;20329;-67
2023/05/15 06:46:41;;;;;;;6.20;5.60;;;;;;;14.03;52.95;99576.03;10301731;28;20234;-67
2023/05/15 06:51:43;;;;;;;6.07;4.90;;;;;;;14.75;51.66;99600.97;10266811;28;20245;-66
2023/05/15 06:56:45;;;;;;;5.67;4.87;;;;;;;15.30;50.53;99570.75;10267533;28;20300;-67
2023/05/15 07:01:46;;;;;;;6.87;4.80;;;;;;;15.00;51.18;99553.59;10269980;28;20234;-67
2023/05/15 07:06:48;;;;;;;6.43;5.00;;;;;;;15.07;51.13;99562.47;10283927;28;20235;-67
2023/05/15 07:11:50;;;;;;;6.80;5.03;;;;;;;14.78;52.04;99537.78;10278220;28;20290;-67
2023/05/15 07:16:52;;;;;;;6.87;4.93;;;;;;;16.38;49.12;99633.41;10286751;28;20230;-66
2023/05/15 07:21:54;;;;;;;5.53;4.37;;;;;;;16.11;48.51;99560.00;10268636;28;20241;-67
2023/05/15 07:26:58;;;;;;;5.53;4.57;;;;;;;16.97;48.18;99606.66;10293680;28;20237;-67
2023/05/15 07:32:00;;;;;;;5.47;4.13;;;;;;;16.59;49.03;99569.13;10294838;28;20332;-67
2023/05/15 07:37:01;;;;;;;6.93;4.40;;;;;;;17.06;47.92;99561.19;10270953;28;20229;-67
2023/05/15 07:42:03;;;;;;;4.77;4.00;;;;;;;16.61;47.31;99469.78;10292035;28;20238;-66
2023/05/15 07:47:05;;;;;;;4.43;3.97;;;;;;;16.73;48.01;99507.63;10290014;28;20312;-67
2023/05/15 07:52:07;;;;;;;4.30;3.90;;;;;;;16.30;48.19;99474.41;10299446;28;20232;-67
2023/05/15 07:57:09;;;;;;;6.33;4.03;;;;;;;17.66;46.13;99479.00;10292245;28;20217;-66
2023/05/15 08:02:10;;;;;;;4.77;4.27;;;;;;;17.33;47.34;99453.38;10291107;28;20269;-67
2023/05/15 08:07:13;;;;;;;5.43;4.17;;;;;;;17.41;47.69;99463.00;10291686;28;20262;-67
2023/05/15 08:12:16;;;;;;;7.50;4.43;;;;;;;16.71;48.72;99445.72;10290045;28;20292;-68
2023/05/15 08:17:18;;;;;;;4.47;4.07;;;;;;;16.15;49.52;99412.72;10295050;28;20222;-67
2023/05/15 08:22:20;;;;;;;4.27;3.63;;;;;;;16.97;46.44;99419.31;10294756;28;20234;-66
2023/05/15 08:27:21;;;;;;;5.17;4.23;;;;;;;17.02;47.99;99429.44;10288271;28;20230;-67
2023/05/15 08:32:23;;;;;;;4.07;3.63;;;;;;;17.79;44.73;99423.75;10283401;28;20257;-66
2023/05/15 08:37:25;;;;;;;4.40;4.00;;;;;;;17.90;45.33;99417.50;10288712;28;20241;-67
2023/05/15 08:42:34;;;;;;;5.43;3.67;;;;;;;18.25;45.54;99402.09;10265630;28;20231;-67
2023/05/15 08:47:39;;;;;;;4.70;4.30;;;;;;;17.58;46.98;99389.22;10283027;28;20693;-67
2023/05/15 08:52:49;;;;;;;4.10;3.70;;;;;;;17.39;47.28;99396.69;10272767;28;20289;-67
2023/05/15 08:57:53;;;;;;;4.40;4.00;;;;;;;17.85;47.24;99367.84;10272591;28;20254;-67
2023/05/15 09:02:56;;;;;;;3.60;3.30;;;;;;;18.26;45.44;99368.56;10272138;28;20652;-67
2023/05/15 09:08:03;;;;;;;4.20;3.80;;;;;;;18.12;45.76;99354.53;10271639;28;20285;-67
2023/05/15 09:13:06;;;;;;;6.03;3.80;;;;;;;18.12;45.88;99315.78;10272225;28;20238;-67
2023/05/15 09:18:08;;;;;;;5.27;3.40;;;;;;;17.21;45.86;99305.72;10270412;28;20293;-67
2023/05/15 09:23:25;;;;;;;5.43;3.60;;;;;;;18.33;45.40;99320.50;10273766;28;20665;-67
2023/05/15 09:28:29;;;;;;;10.87;4.10;;;;;;;17.99;46.20;99334.00;10266820;28;20575;-67
2023/05/15 09:33:36;;;;;;;4.13;3.67;;;;;;;18.58;44.57;99324.66;10271737;28;20776;-67
2023/05/15 09:38:42;;;;;;;5.00;3.80;;;;;;;18.65;45.07;99265.69;10268103;28;20784;-67
2023/05/15 09:43:43;;;;;;;5.17;3.80;;;;;;;19.04;42.56;99281.91;10269783;28;20853;-66
2023/05/15 09:48:45;;;;;;;4.20;3.80;;;;;;;19.25;43.03;99272.13;10265435;28;20261;-67
2023/05/15 09:53:49;;;;;;;4.17;3.77;;;;;;;19.76;42.77;99296.25;10269016;28;20233;-67
2023/05/15 09:58:55;;;;;;;3.40;3.10;;;;;;;19.34;42.82;99288.75;10269061;28;21069;-67
2023/05/15 10:03:58;;;;;;;5.07;3.40;;;;;;;19.85;42.13;99272.97;10269821;28;20284;-67
2023/05/15 10:09:01;;;;;;;3.50;3.20;;;;;;;19.98;40.81;99243.78;10268596;28;21049;-67
2023/05/15 10:14:05;;;;;;;4.68;3.65;;;;;;;19.83;42.33;99236.31;10268737;28;20309;-67
2023/05/15 10:19:11;;;;;;;4.53;2.97;;;;;;;20.02;41.25;99218.53;10267161;28;20288;-67
2023/05/15 10:24:18;;;;;;;2.92;2.70;;;;;;;17.15;41.47;99216.44;10269387;28;20237;-67
2023/05/15 10:29:22;;;;;;;1.80;1.70;;;;;;;15.92;45.45;99326.28;10268289;28;20925;-67
2023/05/15 10:34:25;;;;;;;3.17;2.20;;;;;;;12.73;52.71;99198.78;10268071;28;20242;-67
2023/05/15 10:39:28;;;;;;;4.07;2.20;;;;;;;12.22;55.22;99271.16;10271435;28;20254;-67
2023/05/15 10:44:29;;;;;;;3.73;2.13;;;;;;;13.61;52.78;99401.59;10268340;28;20230;-67
2023/05/15 10:49:31;;;;;;;2.40;2.00;;;;;;;13.32;51.88;99343.84;10269414;28;20663;-66
2023/05/15 10:54:33;;;;;;;2.93;2.40;;;;;;;15.11;50.77;99340.00;10265044;28;20236;-67
2023/05/15 10:59:34;;;;;;;4.90;2.70;;;;;;;15.25;50.91;99311.84;10267680;28;20234;-67
2023/05/15 11:06:32;;;;;;;2.67;2.47;;;;;;;13.21;57.12;99374.00;10427716;28;20802;-67
2023/05/15 11:11:59;;;;;;;4.13;2.33;;;;;;;14.82;54.12;99293.91;10369141;28;20232;-67
2023/05/15 11:17:06;;;;;;;2.73;2.53;;;;;;;15.11;55.26;99286.91;10391533;28;20232;-66
2023/05/15 11:22:08;;;;;;;2.70;2.50;;;;;;;13.99;56.19;99341.59;10395413;28;20748;-67
2023/05/15 11:27:12;;;;;;;2.63;2.43;;;;;;;13.92;56.36;99295.09;10394625;28;20231;-68
2023/05/15 11:32:48;;;;;;;2.60;2.40;;;;;;;14.14;57.30;99329.75;10395779;28;20237;-67
2023/05/15 11:37:52;;;;;;;2.90;2.30;;;;;;;15.30;55.94;99328.16;10391951;28;20718;-68
2023/05/15 11:43:16;;;;;;;6.53;2.53;;;;;;;15.33;54.82;99316.09;10392148;28;20221;-68
2023/05/15 11:48:18;;;;;;;2.50;2.30;;;;;;;16.94;51.74;99300.88;10393331;28;20319;-67
2023/05/15 11:53:22;;;;;;;2.20;2.00;;;;;;;16.58;53.15;99278.47;10398261;28;20252;-68
2023/05/15 11:58:25;;;;;;;2.17;1.97;;;;;;;16.11;53.68;99260.41;10388109;28;20325;-67
2023/05/15 12:03:32;;;;;;;3.67;2.20;;;;;;;15.16;53.71;99264.69;10395671;28;20302;-68
2023/05/15 12:08:36;;;;;;;2.50;2.40;;;;;;;17.64;50.33;99291.72;10389877;28;20235;-68
2023/05/15 12:13:38;;;;;;;3.13;2.87;;;;;;;16.96;52.43;99228.50;10388465;28;20236;-68
2023/05/15 12:18:39;;;;;;;2.30;2.20;;;;;;;16.62;51.32;99293.97;10362624;28;20230;-68
2023/05/15 12:23:50;;;;;;;2.60;2.40;;;;;;;16.53;52.18;99264.84;10364054;28;20229;-68
2023/05/15 12:29:08;;;;;;;2.70;2.50;;;;;;;17.15;51.85;99269.69;10364577;28;20499;-68
2023/05/15 12:34:10;;;;;;;3.07;2.77;;;;;;;16.51;52.03;99281.28;10366594;28;20731;-68
2023/05/15 12:39:11;;;;;;;3.50;2.43;;;;;;;16.82;51.10;99276.56;10363960;28;20232;-68
2023/05/15 12:44:16;;;;;;;2.93;2.40;;;;;;;16.64;49.97;99276.72;10361387;28;20536;-68
2023/05/15 12:49:21;;;;;;;3.40;2.63;;;;;;;17.55;48.75;99293.16;10364063;28;20243;-68
2023/05/15 12:54:23;;;;;;;2.33;2.10;;;;;;;17.34;48.60;99281.13;10361623;28;20236;-68
2023/05/15 12:59:25;;;;;;;2.00;1.90;;;;;;;16.43;48.68;99278.94;10363005;28;20616;-68
2023/05/15 13:04:26;;;;;;;2.00;1.90;;;;;;;16.98;46.15;99286.66;10363775;28;20705;-68
2023/05/15 13:09:29;;;;;;;2.00;1.90;;;;;;;16.91;45.66;99304.84;10333103;28;20592;-68
2023/05/15 13:14:32;;;;;;;2.40;2.10;;;;;;;17.11;45.69;99306.38;10327115;28;20237;-68
2023/05/15 13:19:33;;;;;;;3.97;2.17;;;;;;;17.67;45.61;99302.06;10330312;28;20248;-68
2023/05/15 13:24:35;;;;;;;2.27;2.07;;;;;;;17.49;44.99;99277.88;10335482;28;20233;-68
2023/05/15 13:29:36;;;;;;;2.43;2.27;;;;;;;17.75;43.86;99295.44;10337472;28;20608;-68
2023/05/15 13:34:38;;;;;;;2.47;2.27;;;;;;;17.02;43.89;99308.59;10337959;28;20221;-68
2023/05/15 13:39:40;;;;;;;2.80;2.40;;;;;;;16.71;45.21;99291.72;10335062;28;20233;-68
2023/05/15 13:44:41;;;;;;;3.27;2.97;;;;;;;17.69;45.57;99315.34;10338897;28;20244;-68
2023/05/15 13:49:44;;;;;;;3.27;2.97;;;;;;;16.25;48.87;99341.97;10335247;28;20233;-68
2023/05/15 13:54:46;;;;;;;3.87;3.17;;;;;;;16.50;48.88;99287.78;10332091;28;20721;-69
2023/05/15 13:59:48;;;;;;;4.37;3.23;;;;;;;15.39;50.27;99285.53;10337224;28;20609;-70
2023/05/15 14:04:50;;;;;;;4.40;3.37;;;;;;;15.66;51.06;99309.47;10347040;28;20351;-69
2023/05/15 14:09:51;;;;;;;4.47;3.97;;;;;;;15.82;51.46;99302.56;10338341;28;20236;-69
2023/05/15 14:14:53;;;;;;;2.93;2.67;;;;;;;15.24;51.56;99328.25;10335734;28;20235;-70
2023/05/15 14:19:55;;;;;;;4.93;2.70;;;;;;;14.61;51.51;99327.47;10346137;28;20636;-68
2023/05/15 14:24:56;;;;;;;3.30;3.00;;;;;;;14.84;51.58;99331.38;10332049;28;20233;-69
2023/05/15 14:29:59;;;;;;;2.67;2.47;;;;;;;15.28;51.13;99345.59;10333605;28;20247;-69
2023/05/15 14:35:00;;;;;;;3.60;2.90;;;;;;;16.68;49.28;99307.59;10332795;28;20239;-69
2023/05/15 14:40:03;;;;;;;3.50;3.20;;;;;;;15.88;49.56;99307.88;10333785;28;20242;-69
2023/05/15 14:45:05;;;;;;;4.00;3.40;;;;;;;16.61;48.80;99251.81;10337489;28;20234;-68
2023/05/15 14:50:07;;;;;;;3.73;3.40;;;;;;;16.18;49.71;99320.47;10336857;28;21171;-69
2023/05/15 14:55:09;;;;;;;3.90;3.50;;;;;;;16.73;47.28;99246.38;10343157;28;20225;-69
2023/05/15 15:05:25;;;;;;;4.10;3.40;;;;;;;13.88;52.29;99388.00;10518421;27;1972640;-66
2023/05/15 15:10:27;;;;;;;4.20;3.30;;;;;;;15.33;50.47;99356.53;10460892;28;20235;-68
2023/05/15 15:15:30;;;;;;;5.77;3.50;;;;;;;14.62;50.53;99368.66;10459636;28;20211;-66
2023/05/15 15:20:32;;;;;;;4.10;3.37;;;;;;;14.49;51.24;99377.66;10459554;28;20239;-67
2023/05/15 15:25:34;;;;;;;3.33;3.03;;;;;;;14.13;52.11;99403.41;10457873;28;20718;-67
2023/05/15 15:30:36;;;;;;;4.83;3.67;;;;;;;14.36;51.86;99394.78;10460943;28;20329;-66
2023/05/15 15:35:38;;;;;;;4.90;3.87;;;;;;;16.17;48.54;99366.59;10457115;28;20234;-66
2023/05/15 15:40:40;;;;;;;4.27;3.83;;;;;;;15.81;47.64;99361.09;10458283;28;20332;-67
2023/05/15 15:45:41;;;;;;;4.20;3.80;;;;;;;15.77;47.92;99369.88;10454113;28;20300;-68
2023/05/15 15:50:43;;;;;;;4.87;4.27;;;;;;;16.42;48.54;99374.53;10458889;28;20235;-68
2023/05/15 15:55:45;;;;;;;4.43;4.03;;;;;;;16.43;48.08;99354.56;10456407;28;20234;-66
2023/05/15 16:00:47;;;;;;;5.60;4.80;;;;;;;15.95;48.22;99360.91;10457833;28;20250;-65
2023/05/15 16:05:50;;;;;;;6.53;4.93;;;;;;;15.16;50.05;99368.97;10456123;28;20240;-64
2023/05/15 16:10:53;;;;;;;5.23;4.53;;;;;;;15.68;50.16;99377.47;10449804;28;20227;-65
2023/05/15 16:15:55;;;;;;;6.23;4.60;;;;;;;14.88;52.89;99395.38;10434093;28;20227;-67
2023/05/15 16:20:57;;;;;;;5.77;5.27;;;;;;;14.80;53.74;99359.81;10429649;28;20240;-67
2023/05/15 16:25:59;;;;;;;5.23;4.73;;;;;;;14.70;54.09;99355.72;10426953;28;20315;-65
2023/05/15 16:31:02;;;;;;;6.73;4.77;;;;;;;15.51;52.96;99334.09;10428067;28;20730;-66
2023/05/15 16:36:04;;;;;;;8.13;5.30;;;;;;;15.04;52.32;99341.94;10427469;28;20232;-67
2023/05/15 16:41:05;;;;;;;7.57;5.37;;;;;;;14.98;50.31;99330.19;10425723;28;20231;-65
2023/05/15 16:46:07;;;;;;;6.23;5.63;;;;;;;15.27;50.12;99358.25;10429225;28;20722;-65
2023/05/15 16:51:09;;;;;;;6.70;5.20;;;;;;;16.57;47.95;99355.97;10426481;28;20603;-65
2023/05/15 16:56:12;;;;;;;6.17;5.33;;;;;;;15.50;50.25;99362.97;10422802;28;20294;-65
2023/05/15 17:01:14;;;;;;;6.83;5.27;;;;;;;15.55;49.63;99350.69;10428218;28;20232;-64
2023/05/15 17:06:16;;;;;;;6.53;5.70;;;;;;;15.52;50.76;99374.31;10421507;28;20232;-65
2023/05/15 17:11:19;;;;;;;6.70;5.70;;;;;;;15.55;51.37;99329.91;10420706;28;20825;-65
2023/05/15 17:16:20;;;;;;;6.87;6.10;;;;;;;16.22;50.82;99335.13;10428424;28;20242;-66
2023/05/15 17:21:22;;;;;;;8.70;6.07;;;;;;;16.75;50.03;99367.72;10421087;28;20228;-66
2023/05/15 17:26:24;;;;;;;7.03;6.30;;;;;;;16.41;50.59;99351.28;10418022;28;20285;-66
2023/05/15 17:31:28;;;;;;;10.60;6.00;;;;;;;16.65;50.53;99364.78;10421573;28;20229;-66
2023/05/15 17:36:30;;;;;;;6.73;6.00;;;;;;;15.67;51.69;99347.00;10417583;28;20326;-68
2023/05/15 17:41:31;;;;;;;7.67;5.70;;;;;;;16.10;50.79;99382.88;10424423;28;20229;-64
2023/05/15 17:46:33;;;;;;;6.83;5.97;;;;;;;14.32;52.55;99372.81;10416994;28;20236;-63
2023/05/15 17:51:34;;;;;;;6.73;6.03;;;;;;;15.98;50.37;99404.44;10424588;28;20745;-65
2023/05/15 17:56:36;;;;;;;6.50;5.90;;;;;;;16.49;48.76;99406.84;10421813;28;20235;-64
2023/05/15 18:01:38;;;;;;;6.47;5.27;;;;;;;16.48;49.17;99422.19;10420601;28;20664;-64
2023/05/15 18:06:40;;;;;;;7.67;6.00;;;;;;;16.78;48.08;99386.16;10417834;28;20220;-64
2023/05/15 18:11:41;;;;;;;6.10;5.50;;;;;;;17.38;47.19;99395.88;10420373;28;20730;-64
2023/05/15 18:16:43;;;;;;;6.93;5.93;;;;;;;15.47;50.37;99393.06;10419813;28;20228;-65
2023/05/15 18:21:45;;;;;;;9.50;6.27;;;;;;;17.64;47.56;99399.94;10421217;28;20239;-67
2023/05/15 18:26:46;;;;;;;7.40;6.07;;;;;;;18.22;47.33;99424.25;10422772;28;20764;-64
2023/05/15 18:31:48;;;;;;;6.23;5.63;;;;;;;17.26;47.56;99362.63;10421893;28;20232;-65
2023/05/15 18:36:50;;;;;;;10.73;5.97;;;;;;;16.76;47.81;99385.59;10416825;28;20233;-66
2023/05/15 18:41:52;;;;;;;6.63;5.90;;;;;;;17.23;48.99;99403.69;10417682;28;20243;-66
2023/05/15 18:46:54;;;;;;;9.13;7.47;;;;;;;17.05;48.39;99358.69;10413508;28;20244;-66
2023/05/15 18:51:56;;;;;;;9.07;7.07;;;;;;;17.43;48.47;99379.75;10415662;28;20757;-66
2023/05/15 18:56:58;;;;;;;8.73;6.90;;;;;;;18.24;47.22;99414.03;10420879;28;20254;-67
2023/05/15 19:01:59;;;;;;;7.57;6.77;;;;;;;17.92;47.92;99380.16;10420204;28;20302;-68
2023/05/15 19:07:01;;;;;;;8.83;6.30;;;;;;;17.21;48.54;99381.44;10413477;28;20228;-66
2023/05/15 19:12:04;;;;;;;7.30;6.60;;;;;;;16.09;50.85;99410.91;10423994;28;20227;-66
2023/05/15 19:17:06;;;;;;;7.47;6.67;;;;;;;16.35;50.74;99420.53;10422477;28;20239;-66
2023/05/15 19:22:07;;;;;;;7.37;6.67;;;;;;;16.10;50.56;99441.44;10422389;28;20282;-65
2023/05/15 19:27:09;;;;;;;8.70;5.87;;;;;;;15.06;51.62;99391.84;10421096;28;20236;-65
2023/05/15 19:32:10;;;;;;;7.10;6.40;;;;;;;15.17;51.77;99441.50;10416934;28;20235;-66
2023/05/15 19:37:12;;;;;;;6.60;6.00;;;;;;;17.41;47.95;99427.00;10420118;28;20298;-66
2023/05/15 19:42:14;;;;;;;8.07;6.40;;;;;;;17.00;48.41;99405.34;10424059;28;20223;-65
2023/05/15 19:47:15;;;;;;;10.13;5.40;;;;;;;17.22;48.16;99408.25;10421765;28;20803;-65
2023/05/15 19:52:18;;;;;;;7.43;6.70;;;;;;;17.33;47.96;99436.34;10428569;28;20232;-65
2023/05/15 19:57:20;;;;;;;7.17;5.67;;;;;;;16.42;48.59;99437.47;10432308;28;20224;-65
2023/05/15 20:02:21;;;;;;;8.07;6.50;;;;;;;15.05;51.50;99448.66;10433412;28;20248;-67
2023/05/15 20:07:23;;;;;;;7.60;6.20;;;;;;;16.27;49.52;99447.88;10431852;28;20228;-66
2023/05/15 20:12:25;;;;;;;6.90;6.20;;;;;;;15.41;50.50;99431.69;10429078;28;20227;-65
2023/05/15 20:17:27;;;;;;;7.37;6.67;;;;;;;15.96;49.53;99440.78;10429755;28;20752;-64
2023/05/15 20:22:28;;;;;;;9.13;6.37;;;;;;;15.99;48.59;99440.34;10430201;28;20239;-64
2023/05/15 20:27:31;;;;;;;7.13;6.30;;;;;;;15.94;48.79;99451.81;10432033;28;20231;-66
2023/05/15 20:32:32;;;;;;;7.00;6.30;;;;;;;14.59;50.54;99426.47;10431698;28;20235;-66
2023/05/15 20:37:35;;;;;;;6.53;5.90;;;;;;;14.81;50.67;99480.75;10431223;28;20302;-65
2023/05/15 20:42:37;;;;;;;6.83;5.90;;;;;;;14.57;50.50;99466.25;10433289;28;20231;-66
2023/05/15 20:47:39;;;;;;;8.03;6.63;;;;;;;14.24;52.59;99490.69;10426439;28;20236;-67
2023/05/15 20:52:41;;;;;;;7.47;6.50;;;;;;;13.91;54.06;99481.72;10429505;28;20673;-67
2023/05/15 20:57:43;;;;;;;7.87;6.80;;;;;;;13.42;55.15;99449.00;10430722;28;20238;-67
2023/05/15 21:02:45;;;;;;;8.70;7.03;;;;;;;13.42;56.23;99480.44;10433419;28;20245;-67
2023/05/15 21:07:47;;;;;;;8.97;7.93;;;;;;;12.91;57.78;99450.53;10426707;28;20228;-68
2023/05/15 21:12:49;;;;;;;9.80;8.80;;;;;;;12.61;58.85;99460.03;10428317;28;20801;-67
2023/05/15 21:17:50;;;;;;;11.50;8.33;;;;;;;13.35;57.63;99506.53;10426645;28;20945;-67
2023/05/15 21:22:52;;;;;;;9.43;7.97;;;;;;;13.22;58.01;99524.25;10433444;28;20289;-68
2023/05/15 21:27:54;;;;;;;8.10;7.27;;;;;;;13.43;57.64;99522.41;10428487;28;20220;-67
2023/05/15 21:32:56;;;;;;;7.73;7.03;;;;;;;13.09;57.00;99506.31;10435616;28;20240;-67
2023/05/15 21:37:58;;;;;;;8.30;7.50;;;;;;;13.33;57.09;99541.66;10426283;28;20301;-67
2023/05/15 21:42:59;;;;;;;9.27;7.20;;;;;;;13.03;58.21;99536.69;10434258;28;20257;-67
2023/05/15 21:48:01;;;;;;;11.37;7.87;;;;;;;12.65;57.99;99510.41;10426761;28;20235;-68
2023/05/15 21:53:03;;;;;;;9.07;7.73;;;;;;;13.31;57.02;99549.09;10434191;28;20248;-68
2023/05/15 21:58:04;;;;;;;9.20;8.00;;;;;;;13.21;56.89;99538.75;10428361;28;20748;-67
2023/05/15 22:03:06;;;;;;;8.93;8.00;;;;;;;13.75;56.26;99561.03;10430034;28;20244;-67
2023/05/15 22:08:08;;;;;;;10.80;8.37;;;;;;;13.98;56.60;99568.59;10432363;28;20232;-68
2023/05/15 22:13:09;;;;;;;9.00;7.77;;;;;;;13.24;57.58;99543.69;10425708;28;20274;-67
2023/05/15 22:18:12;;;;;;;8.97;8.03;;;;;;;13.84;56.60;99565.13;10425575;28;20672;-67
2023/05/15 22:23:14;;;;;;;10.53;8.53;;;;;;;14.71;55.14;99589.00;10424131;28;20746;-66
2023/05/15 22:28:15;;;;;;;10.50;7.57;;;;;;;15.85;52.90;99569.22;10427898;28;20232;-67
2023/05/15 22:33:17;;;;;;;8.30;7.50;;;;;;;16.47;51.14;99570.97;10425294;28;20235;-67
2023/05/15 22:38:19;;;;;;;9.03;7.97;;;;;;;14.14;56.54;99590.72;10422210;28;20227;-66
2023/05/15 22:43:21;;;;;;;9.90;8.90;;;;;;;15.38;54.83;99566.94;10425673;28;20614;-65
2023/05/15 22:48:23;;;;;;;8.93;8.13;;;;;;;14.58;55.42;99554.06;10426713;28;21552;-66
2023/05/15 22:53:25;;;;;;;9.80;8.80;;;;;;;15.28;55.14;99580.91;10425983;28;20228;-67
2023/05/15 22:58:26;;;;;;;13.47;8.77;;;;;;;15.38;54.92;99588.50;10426550;28;20742;-65
2023/05/15 23:03:28;;;;;;;10.80;9.70;;;;;;;15.67;53.88;99605.91;10423404;28;20239;-68
2023/05/15 23:08:30;;;;;;;12.07;9.10;;;;;;;16.04;53.36;99584.34;10421790;28;20591;-65
2023/05/15 23:13:31;;;;;;;9.80;8.80;;;;;;;16.06;53.24;99573.31;10423554;28;20237;-65
2023/05/15 23:18:33;;;;;;;12.27;9.00;;;;;;;16.51;52.45;99609.97;10422536;28;20246;-65
2023/05/15 23:23:35;;;;;;;9.53;8.57;;;;;;;16.59;52.47;99583.47;10421423;28;20281;-65
2023/05/15 23:28:36;;;;;;;10.07;9.03;;;;;;;16.68;52.48;99591.25;10424484;28;23079;-68
2023/05/15 23:33:38;;;;;;;10.40;9.27;;;;;;;14.90;56.67;99565.69;10425378;28;20324;-66